Robins Air Force Base
KWRB : now visible

Airfield :











YOU CAN JOIN US ON...

 
LOGIN :

Register | Disclaimer

   EN    FR    IT 

 









Legend :    VFR   Marginal VFR   IFR   Intensive IFR   Very Intensive IFR
Visi :
Ceiling :
>= 8 km
>= 3000ft
5 to 8 km
1000 to 3000 ft
1500m to 5 km
500 to 1000 ft
800 to 1500m
200 to 500 ft
< 800m
< 200 ft
Symbols :   Thunderstorms  Fog  Heavy snow  Heavy precipitations  Wind > 20 kt






- Airport Elevation : 294 ft


KWRB - Robins Air Force Base

CURRENT METAR :
  • 041556Z AUTO 00000KT 10SM CLR 22/09 A2998 RMK AO2 SLP154 T02210093 $

EXPIRED METARs :
  • 041456Z AUTO 34004KT 10SM CLR 19/11 A2999 RMK AO2 SLP157 T01900105 51009 $
  • 041356Z AUTO 33003KT 10SM BKN110 16/11 A2999 RMK AO2 SLP157 T01560112 $

TAF TAF KWRB
Valid from the 03 at 21:00 until the 05 at 03:00 UTC


032100Z 0321/0503 VRB06KT 9999 FEW140 QNH2992INS TX26/0321Z TN11/0412Z LAST NO AMDS AFT 0403 NEXT 0513



MET'MAP, your aeronautical weather chart ! - Copyright ORBIFLY December 2007 - Disclaimer

ORBIFLY MET'MAP TEAM :

Programming & Development : Alexandra Zaïnal
Concept & original design : Baudouin d'Aumeries
Assistance for programming : Marc-Olivier Méhu
Technical & hardware support : Manuel Goepfert

Contact : metmap@orbifly.com




SOURCES & CREDITS :

   NOAA       Earth
Advisory